Latest Weather Observations for South Channel Island

IDV60801

Issued at 9:12 am EST Sunday 16 June 2019 (issued every 10 minutes, with the page automatically refreshed every 10 minutes)

About weather observations | Map of weather stations | Latest weather observations for VIC | Other Formats
Station Details ID: 086344 Name: SOUTH CHANNEL ISLAND Lat: -38.31 Lon: 144.80 Height: 9.0 m
Data from the previous 72 hours. | See also: Recent months at South Channel Island
Date/Time
EST
Temp
°C
App
Temp
°C
Dew
Point
°C
Rel
Hum
%
Delta-T
°C
Wind Press
QNH
hPa
Press
MSL
hPa
Rain since
9am
mm
Dir  Spd
km/h
Gust
km/h
Spd
kts
Gust
kts
16/09:00am - - - - - N 20 22 11 12 - - -
16/08:30am - - - - - N 19 20 10 11 - - -
16/08:00am - - - - - N 20 22 11 12 - - -
16/07:30am - - - - - N 24 26 13 14 - - -
16/07:00am - - - - - N 22 26 12 14 - - -
16/06:30am - - - - - N 22 26 12 14 - - -
16/06:00am - - - - - N 22 24 12 13 - - -
16/05:30am - - - - - N 22 26 12 14 - - -
16/05:00am - - - - - N 20 24 11 13 - - -
16/04:30am - - - - - N 20 24 11 13 - - -
16/04:00am - - - - - N 24 26 13 14 - - -
16/03:30am - - - - - N 22 26 12 14 - - -
16/03:00am - - - - - N 24 28 13 15 - - -
16/02:30am - - - - - N 28 30 15 16 - - -
16/02:00am - - - - - N 26 28 14 15 - - -
16/01:30am - - - - - N 24 28 13 15 - - -
16/01:00am - - - - - N 24 28 13 15 - - -
16/12:30am - - - - - N 20 24 11 13 - - -
16/12:00am - - - - - N 15 19 8 10 - - -
 
Date/Time
EST
Temp
°C
App
Temp
°C
Dew
Point
°C
Rel
Hum
%
Delta-T
°C
Wind Press
QNH
hPa
Press
MSL
hPa
Rain since
9am
mm
Dir  Spd
km/h
Gust
km/h
Spd
kts
Gust
kts
15/11:30pm - - - - - N 15 15 8 8 - - -
15/11:00pm - - - - - N 17 19 9 10 - - -
15/10:30pm - - - - - NNE 17 19 9 10 - - -
15/10:00pm - - - - - N 15 17 8 9 - - -
15/09:30pm - - - - - N 13 15 7 8 - - -
15/09:00pm - - - - - N 13 15 7 8 - - -
15/08:30pm - - - - - N 13 15 7 8 - - -
15/08:00pm - - - - - N 13 13 7 7 - - -
15/07:30pm - - - - - N 11 13 6 7 - - -
15/07:00pm - - - - - N 7 9 4 5 - - -
15/06:30pm - - - - - NE 13 13 7 7 - - -
15/06:00pm - - - - - NNE 9 11 5 6 - - -
15/05:30pm - - - - - N 9 9 5 5 - - -
15/05:00pm - - - - - N 9 9 5 5 - - -
15/04:30pm - - - - - N 9 11 5 6 - - -
15/04:00pm - - - - - N 11 11 6 6 - - -
15/03:30pm - - - - - NW 9 9 5 5 - - -
15/03:00pm - - - - - WNW 11 13 6 7 - - -
15/02:30pm - - - - - W 17 19 9 10 - - -
15/02:00pm - - - - - W 19 22 10 12 - - -
15/01:30pm - - - - - NNW 9 13 5 7 - - -
15/01:00pm - - - - - NNW 13 15 7 8 - - -
15/12:30pm - - - - - WNW 11 15 6 8 - - -
15/12:00pm - - - - - NW 11 15 6 8 - - -
15/11:30am - - - - - WNW 13 17 7 9 - - -
15/11:00am - - - - - WNW 19 26 10 14 - - -
15/10:30am - - - - - NW 19 24 10 13 - - -
15/10:00am - - - - - NW 15 19 8 10 - - -
15/09:30am - - - - - NW 19 24 10 13 - - -
15/09:00am - - - - - NW 19 24 10 13 - - -
15/08:30am - - - - - NW 19 22 10 12 - - -
15/08:00am - - - - - NW 9 15 5 8 - - -
15/07:30am - - - - - NW 15 17 8 9 - - -
15/07:00am - - - - - NW 19 22 10 12 - - -
15/06:30am - - - - - WNW 22 26 12 14 - - -
15/06:00am - - - - - WNW 20 28 11 15 - - -
15/05:30am - - - - - W 22 28 12 15 - - -
15/05:00am - - - - - WNW 24 28 13 15 - - -
15/04:30am - - - - - WNW 26 30 14 16 - - -
15/04:00am - - - - - WNW 17 20 9 11 - - -
15/03:30am - - - - - WNW 19 26 10 14 - - -
15/03:00am - - - - - NW 22 28 12 15 - - -
15/02:30am - - - - - NW 17 19 9 10 - - -
15/02:00am - - - - - NW 20 26 11 14 - - -
15/01:30am - - - - - NW 24 26 13 14 - - -
15/01:00am - - - - - NW 20 26 11 14 - - -
15/12:30am - - - - - NW 26 30 14 16 - - -
15/12:00am - - - - - WNW 28 32 15 17 - - -
 
Date/Time
EST
Temp
°C
App
Temp
°C
Dew
Point
°C
Rel
Hum
%
Delta-T
°C
Wind Press
QNH
hPa
Press
MSL
hPa
Rain since
9am
mm
Dir  Spd
km/h
Gust
km/h
Spd
kts
Gust
kts
14/11:30pm - - - - - WNW 28 32 15 17 - - -
14/11:00pm - - - - - WNW 26 30 14 16 - - -
14/10:30pm - - - - - WNW 26 32 14 17 - - -
14/10:00pm - - - - - WNW 26 30 14 16 - - -
14/09:30pm - - - - - NW 26 28 14 15 - - -
14/09:00pm - - - - - WNW 26 30 14 16 - - -
14/08:30pm - - - - - WNW 35 39 19 21 - - -
14/08:00pm - - - - - W 33 39 18 21 - - -
14/07:30pm - - - - - W 35 39 19 21 - - -
14/07:00pm - - - - - W 33 37 18 20 - - -
14/06:30pm - - - - - W 37 46 20 25 - - -
14/06:00pm - - - - - WNW 33 41 18 22 - - -
14/05:30pm - - - - - WNW 33 37 18 20 - - -
14/05:00pm - - - - - WNW 30 33 16 18 - - -
14/04:30pm - - - - - W 44 54 24 29 - - -
14/04:15pm - - - - - W 37 65 20 35 - - -
14/04:00pm - - - - - WNW 43 54 23 29 - - -
14/03:58pm - - - - - WNW 44 61 24 33 - - -
14/03:50pm - - - - - NW 33 61 18 33 - - -
14/03:30pm - - - - - NW 32 35 17 19 - - -
14/03:00pm - - - - - NW 28 33 15 18 - - -
14/02:30pm - - - - - NNW 28 33 15 18 - - -
14/02:00pm - - - - - NW 17 19 9 10 - - -
14/01:30pm - - - - - NW 26 33 14 18 - - -
14/01:00pm - - - - - NNW 20 30 11 16 - - -
14/12:30pm - - - - - NNW 19 24 10 13 - - -
14/12:00pm - - - - - NNW 28 30 15 16 - - -
14/11:30am - - - - - NNW 30 33 16 18 - - -
14/11:00am - - - - - NNW 28 30 15 16 - - -
14/10:30am - - - - - NNW 32 35 17 19 - - -
14/10:00am - - - - - NNW 33 39 18 21 - - -
14/09:30am - - - - - NNW 30 33 16 18 - - -
14/09:00am - - - - - NNW 33 37 18 20 - - -
14/08:30am - - - - - NW 32 39 17 21 - - -
14/08:00am - - - - - NNW 32 37 17 20 - - -
14/07:30am - - - - - NNW 32 35 17 19 - - -
14/07:00am - - - - - NNW 32 33 17 18 - - -
14/06:30am - - - - - NNW 32 39 17 21 - - -
14/06:00am - - - - - NNW 30 33 16 18 - - -
14/05:30am - - - - - NNW 28 30 15 16 - - -
14/05:00am - - - - - NW 28 32 15 17 - - -
14/04:30am - - - - - NW 32 37 17 20 - - -
14/04:00am - - - - - NW 32 35 17 19 - - -
14/03:30am - - - - - NW 32 35 17 19 - - -
14/03:00am - - - - - NW 28 32 15 17 - - -
14/02:30am - - - - - NW 30 33 16 18 - - -
14/02:00am - - - - - NW 32 37 17 20 - - -
14/01:30am - - - - - NW 32 35 17 19 - - -
14/01:00am - - - - - NW 30 33 16 18 - - -
14/12:30am - - - - - NW 26 30 14 16 - - -
14/12:00am - - - - - NW 28 32 15 17 - - -
 
Date/Time
EST
Temp
°C
App
Temp
°C
Dew
Point
°C
Rel
Hum
%
Delta-T
°C
Wind Press
QNH
hPa
Press
MSL
hPa
Rain since
9am
mm
Dir  Spd
km/h
Gust
km/h
Spd
kts
Gust
kts
13/11:30pm - - - - - NW 32 35 17 19 - - -
13/11:00pm - - - - - WNW 28 33 15 18 - - -
13/10:30pm - - - - - WNW 30 35 16 19 - - -
13/10:00pm - - - - - WNW 30 35 16 19 - - -
13/09:30pm - - - - - WNW 30 33 16 18 - - -
13/09:00pm - - - - - NW 32 35 17 19 - - -
13/08:30pm - - - - - NW 30 35 16 19 - - -
13/08:00pm - - - - - NW 30 33 16 18 - - -
13/07:30pm - - - - - NW 28 32 15 17 - - -
13/07:00pm - - - - - NW 32 35 17 19 - - -
13/06:30pm - - - - - WNW 30 33 16 18 - - -
13/06:00pm - - - - - W 37 46 20 25 - - -
13/05:49pm - - - - - W 37 46 20 25 - - -
13/05:30pm - - - - - WNW 26 30 14 16 - - -
13/05:00pm - - - - - WNW 32 39 17 21 - - -
13/04:30pm - - - - - NW 39 48 21 26 - - -
13/04:00pm - - - - - NW 35 39 19 21 - - -
13/03:30pm - - - - - NW 37 46 20 25 - - -
13/03:00pm - - - - - NW 37 48 20 26 - - -
13/02:30pm - - - - - NW 33 41 18 22 - - -
13/02:00pm - - - - - NW 35 44 19 24 - - -
13/01:30pm - - - - - NW 46 54 25 29 - - -
13/01:00pm - - - - - NW 41 48 22 26 - - -
13/12:30pm - - - - - NW 43 50 23 27 - - -
13/12:00pm - - - - - NW 41 50 22 27 - - -
13/11:30am - - - - - NW 35 44 19 24 - - -
13/11:00am - - - - - NNW 32 33 17 18 - - -
13/10:30am - - - - - NNW 24 30 13 16 - - -
13/10:00am - - - - - NNW 22 28 12 15 - - -
13/09:30am - - - - - NNW 30 35 16 19 - - -

Other formats

Comma delimited format used in spreadsheet applications
http://www.bom.gov.au/fwo/IDV60801/IDV60801.94853.axf

JavaScript Object Notation format (JSON) in row-major order
http://www.bom.gov.au/fwo/IDV60801/IDV60801.94853.json

Data quality

Most of these data are generated automatically and are frequently updated. Quality checks on data are not normally performed. It is possible for incorrect values to appear. Refer to information at About Latest Weather Observations and please check the disclaimer before using these data.